createdAt,value
2022-12-01T00:04:20.699Z,73.00
2022-12-01T00:10:02.093Z,72.59
2022-12-01T00:15:29.646Z,72.61
2022-12-01T00:20:56.135Z,72.55
2022-12-01T00:26:19.727Z,72.48
2022-12-01T00:31:41.928Z,72.81
2022-12-01T00:37:05.061Z,72.94
2022-12-01T00:42:27.718Z,72.91
2022-12-01T00:47:49.448Z,72.86
2022-12-01T00:53:11.582Z,73.10
2022-12-01T00:58:33.607Z,73.37
2022-12-01T01:03:55.437Z,73.22
2022-12-01T01:09:17.971Z,72.94
2022-12-01T01:14:39.921Z,73.12
2022-12-01T01:20:02.227Z,72.99
2022-12-01T01:25:24.558Z,72.91
2022-12-01T01:30:46.853Z,73.09
2022-12-01T01:36:10.324Z,73.43
2022-12-01T01:41:33.356Z,73.38
2022-12-01T01:46:54.989Z,73.70
2022-12-01T01:52:17.820Z,73.56
2022-12-01T01:57:42.457Z,73.59
2022-12-01T02:03:05.075Z,73.51
2022-12-01T02:08:27.319Z,73.94
2022-12-01T02:14:00.888Z,73.99
2022-12-01T02:20:20.093Z,73.75
2022-12-01T02:26:04.829Z,73.63
2022-12-01T02:31:49.776Z,73.67
2022-12-01T02:37:19.092Z,73.56
2022-12-01T02:42:53.870Z,73.79
2022-12-01T02:48:29.252Z,73.44
2022-12-01T02:53:51.775Z,73.21
2022-12-01T02:59:15.114Z,73.15
2022-12-01T03:04:50.083Z,73.32
2022-12-01T03:10:20.453Z,73.79
2022-12-01T03:15:54.662Z,73.92
2022-12-01T03:21:35.176Z,73.58
2022-12-01T03:26:58.502Z,73.60
2022-12-01T03:32:26.589Z,73.25
2022-12-01T03:37:59.679Z,73.30
2022-12-01T03:43:26.567Z,73.21
2022-12-01T03:48:48.476Z,73.47
2022-12-01T03:54:19.972Z,74.12
2022-12-01T03:59:43.037Z,74.43
2022-12-01T04:05:11.492Z,74.48
2022-12-01T04:10:33.325Z,74.72
2022-12-01T04:15:56.251Z,75.23
2022-12-01T04:21:18.078Z,75.05
2022-12-01T04:26:40.297Z,75.14
2022-12-01T04:32:02.243Z,74.68
2022-12-01T04:37:24.254Z,74.65
2022-12-01T04:42:46.360Z,75.07
2022-12-01T04:48:08.327Z,75.17
2022-12-01T04:53:30.357Z,75.25
2022-12-01T04:58:52.487Z,75.14
2022-12-01T05:04:14.760Z,74.87
2022-12-01T05:09:36.950Z,74.33
2022-12-01T05:14:58.678Z,74.27
2022-12-01T05:20:41.479Z,74.07
2022-12-01T05:26:05.114Z,73.70
2022-12-01T05:31:27.080Z,73.80
2022-12-01T05:36:49.072Z,73.75
2022-12-01T05:42:10.701Z,73.97
2022-12-01T05:47:32.533Z,73.90
2022-12-01T05:52:54.560Z,73.80
2022-12-01T05:58:16.449Z,74.07
2022-12-01T06:03:38.119Z,73.98
2022-12-01T06:09:00.163Z,74.03
2022-12-01T06:14:22.076Z,74.01
2022-12-01T06:19:44.306Z,74.38
2022-12-01T06:25:07.042Z,74.28
2022-12-01T06:30:29.169Z,74.07
2022-12-01T06:35:58.633Z,74.56
2022-12-01T06:41:21.496Z,74.26
2022-12-01T06:46:43.788Z,74.35
2022-12-01T06:52:05.929Z,74.61
2022-12-01T06:57:27.800Z,74.15
2022-12-01T07:02:50.222Z,74.23
2022-12-01T07:08:12.641Z,73.56
2022-12-01T07:13:35.641Z,73.74
2022-12-01T07:18:57.371Z,73.56
2022-12-01T07:24:19.044Z,73.58
2022-12-01T07:29:41.029Z,73.55
2022-12-01T07:35:02.960Z,73.70
2022-12-01T07:40:25.157Z,74.05
2022-12-01T07:45:47.466Z,74.54
2022-12-01T07:51:11.397Z,74.41
2022-12-01T07:56:33.882Z,74.33
2022-12-01T08:01:55.836Z,74.26
2022-12-01T08:07:17.845Z,74.19
2022-12-01T08:12:39.830Z,74.26
2022-12-01T08:18:02.506Z,74.16
2022-12-01T08:23:24.536Z,74.02
2022-12-01T08:28:47.168Z,74.28
2022-12-01T08:34:09.398Z,74.40
2022-12-01T08:39:31.528Z,74.06
2022-12-01T08:44:53.840Z,74.18
2022-12-01T08:50:16.491Z,74.17
2022-12-01T08:55:38.219Z,74.21
2022-12-01T09:01:05.489Z,74.30
2022-12-01T09:06:27.484Z,74.30
2022-12-01T09:11:49.639Z,74.58
2022-12-01T09:17:11.560Z,74.48
2022-12-01T09:22:34.854Z,74.89
2022-12-01T09:27:56.893Z,74.85
2022-12-01T09:33:18.693Z,74.42
2022-12-01T09:38:40.885Z,74.01
2022-12-01T09:44:15.778Z,74.00
2022-12-01T09:49:44.684Z,74.32
2022-12-01T09:55:12.230Z,74.20
2022-12-01T10:00:37.065Z,73.73
2022-12-01T10:06:28.997Z,73.28
2022-12-01T10:11:55.217Z,73.18
2022-12-01T10:17:29.048Z,73.29
2022-12-01T10:23:21.383Z,73.45
2022-12-01T10:29:05.400Z,73.44
2022-12-01T10:34:33.754Z,73.43
2022-12-01T10:39:57.076Z,73.53
2022-12-01T10:45:27.004Z,73.63
2022-12-01T10:50:52.024Z,73.35
2022-12-01T10:56:21.683Z,73.28
2022-12-01T11:01:48.374Z,72.90
2022-12-01T11:07:25.258Z,72.80
2022-12-01T11:12:55.753Z,73.28
2022-12-01T11:18:36.965Z,73.04
2022-12-01T11:23:59.149Z,72.84
2022-12-01T11:29:36.526Z,73.36
2022-12-01T11:35:02.370Z,73.28
2022-12-01T11:40:27.864Z,72.99
2022-12-01T11:45:50.204Z,73.22
2022-12-01T11:51:17.893Z,72.42
2022-12-01T11:56:40.023Z,72.24
2022-12-01T12:02:05.109Z,72.23
2022-12-01T12:07:34.089Z,72.26
2022-12-01T12:13:17.879Z,72.48
2022-12-01T12:18:45.680Z,72.16
2022-12-01T12:24:26.078Z,72.17
2022-12-01T12:29:48.557Z,71.88
2022-12-01T12:35:19.559Z,71.91
2022-12-01T12:40:47.008Z,72.55
2022-12-01T12:46:16.355Z,72.43
2022-12-01T12:51:43.284Z,72.80
2022-12-01T12:57:09.350Z,72.89
2022-12-01T13:02:44.683Z,72.94
2022-12-01T13:08:11.376Z,72.32
2022-12-01T13:13:54.183Z,72.19
2022-12-01T13:19:22.831Z,72.16
2022-12-01T13:24:44.903Z,72.13
2022-12-01T13:30:17.929Z,71.82
2022-12-01T13:35:40.166Z,72.10
2022-12-01T13:41:24.171Z,72.06
2022-12-01T13:46:46.050Z,72.41
2022-12-01T13:52:22.895Z,72.48
2022-12-01T13:57:49.596Z,72.71
2022-12-01T14:03:17.717Z,71.77
2022-12-01T14:08:48.037Z,71.71
2022-12-01T14:14:09.665Z,71.25
2022-12-01T14:19:35.878Z,71.51
2022-12-01T14:24:57.937Z,71.80
2022-12-01T14:30:42.081Z,72.02
2022-12-01T14:36:26.050Z,71.70
2022-12-01T14:41:51.128Z,71.13
2022-12-01T14:47:18.120Z,71.55
2022-12-01T14:52:43.623Z,71.38
2022-12-01T14:58:08.238Z,71.76
2022-12-01T15:03:44.298Z,71.78
2022-12-01T15:09:34.061Z,71.94
2022-12-01T15:14:56.501Z,71.66
2022-12-01T15:20:33.563Z,71.80
2022-12-01T15:25:56.123Z,72.15
2022-12-01T15:31:18.237Z,71.61
2022-12-01T15:36:40.329Z,71.61
2022-12-01T15:42:03.269Z,71.64
2022-12-01T15:47:46.632Z,72.10
2022-12-01T15:53:33.591Z,72.38
2022-12-01T15:59:06.854Z,72.05
2022-12-01T16:04:32.454Z,72.49
2022-12-01T16:09:59.124Z,71.91
2022-12-01T16:15:22.883Z,72.22
2022-12-01T16:20:44.707Z,71.50
2022-12-01T16:26:08.459Z,71.79
2022-12-01T16:31:30.202Z,71.85
2022-12-01T16:36:52.164Z,71.77
2022-12-01T16:42:16.698Z,71.42
2022-12-01T16:47:38.569Z,71.00
2022-12-01T16:53:00.700Z,71.20
2022-12-01T16:58:22.931Z,71.16
2022-12-01T17:03:44.663Z,71.33
2022-12-01T17:09:07.188Z,71.21
2022-12-01T17:14:29.332Z,71.01
2022-12-01T17:19:52.970Z,71.12
2022-12-01T17:25:15.183Z,71.00
2022-12-01T17:30:37.514Z,71.12
2022-12-01T17:36:01.538Z,70.95
2022-12-01T17:41:25.591Z,71.30
2022-12-01T17:46:47.479Z,70.88
2022-12-01T17:52:09.700Z,71.00
2022-12-01T17:57:31.680Z,71.16
2022-12-01T18:02:55.842Z,71.41
2022-12-01T18:08:17.642Z,71.13
2022-12-01T18:13:41.433Z,70.72
2022-12-01T18:19:04.721Z,70.63
2022-12-01T18:24:26.845Z,70.71
2022-12-01T18:29:48.371Z,70.44
2022-12-01T18:35:10.106Z,70.51
2022-12-01T18:40:32.275Z,70.91
2022-12-01T18:45:54.660Z,70.83
2022-12-01T18:51:17.394Z,71.13
2022-12-01T18:56:39.522Z,71.49
2022-12-01T19:02:01.586Z,71.04
2022-12-01T19:07:29.563Z,71.34
2022-12-01T19:12:51.934Z,71.53
2022-12-01T19:18:14.666Z,70.99
2022-12-01T19:23:36.697Z,71.10
2022-12-01T19:28:59.731Z,71.17
2022-12-01T19:34:21.765Z,71.14
2022-12-01T19:39:43.558Z,71.25
2022-12-01T19:45:06.521Z,71.14
2022-12-01T19:50:28.751Z,71.54
2022-12-01T19:55:50.379Z,71.79
2022-12-01T20:01:14.640Z,72.16
2022-12-01T20:06:37.958Z,72.46
2022-12-01T20:12:02.359Z,72.38
2022-12-01T20:17:24.920Z,72.14
2022-12-01T20:22:46.851Z,72.50
2022-12-01T20:28:09.618Z,72.55
2022-12-01T20:33:31.616Z,72.48
2022-12-01T20:38:54.545Z,72.31
2022-12-01T20:44:16.931Z,72.22
2022-12-01T20:49:39.515Z,72.15
2022-12-01T20:55:01.156Z,72.43
2022-12-01T21:00:23.669Z,72.46
2022-12-01T21:05:45.819Z,72.24
2022-12-01T21:11:13.861Z,72.42
2022-12-01T21:16:35.988Z,72.61
2022-12-01T21:21:58.611Z,72.61
2022-12-01T21:27:20.447Z,72.38
2022-12-01T21:32:44.265Z,72.42
2022-12-01T21:38:14.579Z,72.64
2022-12-01T21:43:39.581Z,72.33
2022-12-01T21:49:01.606Z,72.12
2022-12-01T21:54:23.442Z,72.25
2022-12-01T21:59:45.462Z,72.07
2022-12-01T22:05:24.958Z,72.00
2022-12-01T22:11:08.462Z,71.58
2022-12-01T22:16:33.435Z,71.95
2022-12-01T22:21:59.197Z,72.26
2022-12-01T22:27:31.713Z,72.26
2022-12-01T22:32:57.264Z,72.87
2022-12-01T22:38:30.420Z,72.82
2022-12-01T22:43:55.759Z,72.66
2022-12-01T22:49:22.267Z,72.86
2022-12-01T22:54:46.500Z,72.98
2022-12-01T23:00:17.875Z,73.05
2022-12-01T23:05:39.534Z,73.14
2022-12-01T23:25:49.602Z,72.99
2022-12-01T23:31:12.002Z,72.80
2022-12-01T23:43:48.382Z,72.61
2022-12-01T23:49:14.443Z,72.20
2022-12-01T23:54:38.544Z,72.10
